Aérodrome :
LOGIN :

S'inscrire | Disclaimer

   EN    FR    IT 

 










Légende :    VFR   VFR Marginal   IFR   IFR Intensif   IFR Très Intensif
Visi : 
Plafond : 
>= 8 km
>= 3000ft
5 à 8 km
1000 à 3000 ft
1500m à 5 km
500 à 1000 ft
800 à 1500m
200 à 500 ft
< 800m
< 200 ft
Symboles :   Orages  Brouillard  Fortes neiges  Fortes précipitations  Vent > 20 kt
SIGMETs :   Divers  Orages  Givrage  Turbulence  Onde Orograph.  Cendres Volcan.






- Altitude de l'aérodrome : 37 ft


EHVL - Vlieland Heliport

DERNIER METAR :
  • 220355Z AUTO 32006KT 9999 BKN017 OVC023 13/12 Q1019 WHT

METARs EXPIRÉS :
  • 220325Z AUTO 33006KT 9999 FEW015 OVC022 13/12 Q1019 WHT
  • 220255Z AUTO 34008KT 9999 OVC019 13/12 Q1019 WHT
  • 220242Z AUTO 36006KT 9999 SCT015 OVC018 12/12 Q1018 WHT
  • 220225Z AUTO 35009KT 9999 FEW008 SCT010 BKN013 12/12 Q1018 REDZ GRN
  • 220211Z AUTO 35011KT 9999 FEW001 SCT006 BKN007 13/12 Q1018 YLO
  • 220203Z AUTO 34012KT 4400 DZRA FEW000 SCT004 BKN020 13/12 Q1018 YLO
  • 220155Z AUTO 33012KT 9999 FEW006 SCT007 BKN012 13/12 Q1018 GRN
  • 220136Z AUTO 27006KT 240V300 7000 BR FEW007 SCT008 BKN012 12/12 Q1018 GRN
  • 220125Z AUTO 24005KT 5000 BR FEW023 BKN040 BKN045 12/12 Q1018 WHT

Prévision TAF périmée.



MET'MAP, la Météo Aéronautique d'un coup d'oeil ! - Copyright ORBIFLY Décembre 2007 - Disclaimer

ORBIFLY MET'MAP TEAM :

Programmation & Développement : Alexandra Zaïnal
Conception & Développement : Baudouin d'Aumeries
Co-Programmation & Développement : Marc-Olivier Méhu
Soutien technique & logistique : Manuel Goepfert

Contact : metmap@orbifly.com




SOURCES & CREDITS :

   NOAA